Terminal Aerodrome Forecast
Issued by NWS Central Illinois

Home | Current Version | Previous Version | Text Only | Print | Product List | Glossary On
Versions: 1 2 3 4 5 6 7 8 9 10 11 12 13 14 15 16 17 18 19 20 21 22 23 24 25 26 27
000
FTUS43 KILX 271038 AAA
TAFPIA
TAF AMD
KPIA 271038Z 2711/2806 VRB03KT P6SM OVC025
     FM271400 07005KT 3SM -SHRA BR OVC012
     FM272000 03008KT 3SM -RA BR OVC004
     FM280200 02007KT 5SM BR VCSH OVC007=

USA.gov is the U.S. government's official web portal to all federal, state and local government web resources and services.